High Hill, MO

5:37 PM CDT on May 27, 2017 (GMT -0500)
Big Spring, Mo | | Change Station
Active Advisory: Flood Warning Active Notice: Public Information Statement

Elev 553 ft 38.81 °N, 91.48 °W | Updated 6 minutes ago

Rain
Rain
62.7 °F
Feels Like 62.7 °F
N
4.0
Wind Variable Wind from ESE
Gusts 5.0 mph

Today
High -- | Low -- °F
--% Chance of Precip.
Yesterday
High -- | Low -- °F
Precip. -- in
Pressure 29.84 in
Visibility 10.0 miles
Clouds Few 7500 ft
Scattered Clouds 12000 ft
Dew Point 62 °F
Humidity 99%
Rainfall 0.82 in
Snow Depth Not available.
5:44 AM 8:21 PM
Waxing Crescent, 7% visible
METAR KFYG 272055Z AUTO 00000KT 10SM FEW075 SCT120 20/20 A2984 RMK AO2 LTG DSNT ALQDS P0002
Pressure 29.84 in
Visibility 10.0 miles
Clouds Few 7500 ft
Scattered Clouds 12000 ft
Dew Point 62 °F
Humidity 99%
Rainfall 0.82 in
Snow Depth Not available.
5:44 AM 8:21 PM
Waxing Crescent, 7% visible
METAR KFYG 272055Z AUTO 00000KT 10SM FEW075 SCT120 20/20 A2984 RMK AO2 LTG DSNT ALQDS P0002

Get Your Daily Forecast Email!

Thanks for signing up!

Be on the lookout for a verification email in your inbox.

You'll start receiving severe weather alerts in your inbox..

×

10-Day Weather Forecast

Almanac

Astronomy

May. 27, 2017 Rise Set
Actual Time
Civil Twilight
Nautical Twilight
Astronomical Twilight
Moon
Length of Visible Light
Length of Day
Tomorrow will be .
, % of the Moon is Illuminated

Today's Extremes

State Highs State Lows

Community

WunderPhotos

Category 6

Welcome to Category 6. This is the collective home for Weather Underground's featured writeups by Dr. Jeff Masters (right), Bob Henson (left), Chris Burt, and other regular contributors.

Nearby

Air Quality

  Air Quality AQ Index Pollutant
Not available.

Snow Depth

Station Depth Elevation

Earthquake Activity

City Distance Mag. Time & Date
Minimum magnitude displayed is 2.5.

Coastal Water Temperatures

Place Temperature

Stations

Nearby Weather Stations

Station Location Temp. Windchill Dew Point Humidity Wind Precip. Elev Updated Type
                   

Watches & Warnings

Flood Warning
Issued: 9:55 AM CDT May. 27, 2017 – National Weather Service

The Flood Warning continues for
the Missouri River at Gasconade
* until further notice.
* Flood stage is 22.0 feet.
* Minor flooding is forecast.
* The river is forecast to continue falling to a stage of 22.2 feet
by tomorrow morning.


                   Fld latest 7 a.M. Forecast
location stg obs stg 05/28 05/29 05/30 05/31 06/01

Missouri River
Gasconade 22.0 26.70 22.2 21.7 21.8 22.3 22.6




Lat... Lon 3872 9150 3869 9150 3866 9156 3868 9164
      3873 9164